SondeTracker

Meteorological Radiosondes Database

Operations

Sounding was ended - last measurement: 2022-12-07 01:24:06z

MAP
About Radiosonde

Number: U2450580

Launch Site: Boise [ID] (US)

Type: RS41-NG

AUX: NO

Frequency: 404.800 MHz

Max Speed: 159 km/h at 32191 m

Average Speed: 60.15 km/h

Max Altitude: 33053 m

Average Ascent Speed: 5.07 m/s

Average Descent Speed: 15.03 m/s

Status: UNKNOWN

Status Changes
Launch Site Type AUX Frequency Status Finder Landing Point Description Changes made by
APRS Statistics

Received Frames: 108

First Frame [UTC]: 2022-12-06 23:24:02z

Last Frame [UTC]: 2022-12-07 01:24:06z

Receivers: N7ZDX-2

Flight Time: 02:00:04 h

Distance From First Measurement: 100.73 km

Nearest City: Mountain Home [ID] (US) [54.87 km]

Nearest Hunter: N7ZDX [73.35 km]

Ground Altitude: 1587 m

Distance from QTH: 0.00 km

APRS Data
Receiver Number Date/Time [UTC] φ λ Course [°] Speed [km/h] Altitude [m] Description
N7ZDX-2U24505802022-12-07 01:24:0643.14-115.021118201592Clb=-5.5m/s t=-1.3C h=55.1% p=-1.0hPa 404.800 MHz Type=RS41-NG ser=U2450580 Radiosonde
N7ZDX-2U24505802022-12-07 01:23:0543.1409-115.02598201939Clb=-7.4m/s t=-4.0C h=62.3% p=-1.0hPa 404.800 MHz Type=RS41-NG ser=U2450580 Radiosonde
N7ZDX-2U24505802022-12-07 01:22:0443.1409-115.02980192369Clb=-6.3m/s t=-8.1C h=81.1% p=-1.0hPa 404.800 MHz Type=RS41-NG ser=U2450580 Radiosonde
N7ZDX-2U24505802022-12-07 01:21:0343.1407-115.033103192764Clb=-6.9m/s t=-11.7C h=96.5% p=-1.0hPa 404.800 MHz Type=RS41-NG ser=U2450580 Radiosonde
N7ZDX-2U24505802022-12-07 01:20:0243.1423-115.037117203182Clb=-6.4m/s t=-9.4C h=47.5% p=-1.0hPa 404.800 MHz Type=RS41-NG ser=U2450580 Radiosonde
N7ZDX-2U24505802022-12-07 01:19:0143.1438-115.041121193600Clb=-6.9m/s t=-12.8C h=46.0% p=-1.0hPa 404.800 MHz Type=RS41-NG ser=U2450580 Radiosonde
N7ZDX-2U24505802022-12-07 01:18:0043.1456-115.045124204117Clb=-7.3m/s t=-14.8C h=21.8% p=-1.0hPa 404.800 MHz Type=RS41-NG ser=U2450580 Radiosonde
N7ZDX-2U24505802022-12-07 01:16:5943.1466-115.048123154485Clb=-7.1m/s t=-17.4C h=25.6% p=-1.0hPa 404.800 MHz Type=RS41-NG ser=U2450580 Radiosonde
N7ZDX-2U24505802022-12-07 01:15:5843.148-115.05134154917Clb=-7.0m/s t=-20.6C h=23.8% p=-1.0hPa 404.800 MHz Type=RS41-NG ser=U2450580 Radiosonde
N7ZDX-2U24505802022-12-07 01:15:0743.1507-115.053157245342Clb=-6.8m/s t=-23.8C h=23.6% p=-1.0hPa 404.800 MHz Type=RS41-NG ser=U2450580 Radiosonde
N7ZDX-2U24505802022-12-07 01:14:1643.1538-115.056136285744Clb=-7.0m/s t=-26.5C h=21.2% p=-1.0hPa 404.800 MHz Type=RS41-NG ser=U2450580 Radiosonde
N7ZDX-2U24505802022-12-07 01:13:2043.1569-115.059149306166Clb=-7.1m/s t=-29.1C h=17.8% p=-1.0hPa 404.800 MHz Type=RS41-NG ser=U2450580 Radiosonde
N7ZDX-2U24505802022-12-07 01:12:2143.1613-115.063144356619Clb=-7.4m/s t=-31.9C h=12.0% p=-1.0hPa 404.800 MHz Type=RS41-NG ser=U2450580 Radiosonde
N7ZDX-2U24505802022-12-07 01:11:2043.1657-115.066153307080Clb=-9.0m/s t=-35.1C h=16.3% p=-1.0hPa 404.800 MHz Type=RS41-NG ser=U2450580 Radiosonde
N7ZDX-2U24505802022-12-07 01:10:2143.1706-115.069160337596Clb=-8.4m/s t=-39.4C h=19.9% p=-1.0hPa 404.800 MHz Type=RS41-NG ser=U2450580 Radiosonde
N7ZDX-2U24505802022-12-07 01:09:1743.1766-115.071167488128Clb=-9.1m/s t=-43.8C h=38.0% p=-1.0hPa 404.800 MHz Type=RS41-NG ser=U2450580 Radiosonde
N7ZDX-2U24505802022-12-07 01:08:1343.1844-115.073177568682Clb=-9.8m/s t=-48.4C h=53.0% p=-1.0hPa 404.800 MHz Type=RS41-NG ser=U2450580 Radiosonde
N7ZDX-2U24505802022-12-07 01:07:0643.1924-115.072190599275Clb=-9.8m/s t=-52.2C h=44.6% p=-1.0hPa 404.800 MHz Type=RS41-NG ser=U2450580 Radiosonde
N7ZDX-2U24505802022-12-07 01:05:5943.202-115.068197639900Clb=-10.7m/s t=-55.6C h=30.1% p=-1.0hPa 404.800 MHz Type=RS41-NG ser=U2450580 Radiosonde
N7ZDX-2U24505802022-12-07 01:04:5143.2097-115.0641954810604Clb=-12.3m/s t=-57.6C h=19.7% p=-1.0hPa 404.800 MHz Type=RS41-NG ser=U2450580 Radiosonde
N7ZDX-2U24505802022-12-07 01:03:4543.2156-115.0621652411371Clb=-12.3m/s t=-59.3C h=9.7% p=-1.0hPa 404.800 MHz Type=RS41-NG ser=U2450580 Radiosonde
N7ZDX-2U24505802022-12-07 01:02:4443.2166-115.0711225712159Clb=-13.3m/s t=-58.0C h=3.9% p=-1.0hPa 404.800 MHz Type=RS41-NG ser=U2450580 Radiosonde
N7ZDX-2U24505802022-12-07 01:01:4343.2177-115.082956712952Clb=-12.1m/s t=-59.0C h=2.8% p=-1.0hPa 404.800 MHz Type=RS41-NG ser=U2450580 Radiosonde
N7ZDX-2U24505802022-12-07 01:00:5443.2186-115.096876713690Clb=-12.1m/s t=-57.9C h=2.3% p=-1.0hPa 404.800 MHz Type=RS41-NG ser=U2450580 Radiosonde
N7ZDX-2U24505802022-12-07 01:00:5143.219-115.111847014445Clb=-12.7m/s t=-56.4C h=1.9% p=-1.0hPa 404.800 MHz Type=RS41-NG ser=U2450580 Radiosonde
N7ZDX-2U24505802022-12-07 01:00:4843.2183-115.127948715269Clb=-14.2m/s t=-57.9C h=2.0% p=-1.0hPa 404.800 MHz Type=RS41-NG ser=U2450580 Radiosonde
N7ZDX-2U24505802022-12-07 01:00:3643.2195-115.1461028716145Clb=-14.7m/s t=-59.9C h=2.0% p=-1.0hPa 404.800 MHz Type=RS41-NG ser=U2450580 Radiosonde
N7ZDX-2U24505802022-12-07 01:00:2143.2225-115.162947617056Clb=-15.5m/s t=-59.3C h=1.9% p=-1.0hPa 404.800 MHz Type=RS41-NG ser=U2450580 Radiosonde
N7ZDX-2U24505802022-12-07 01:00:1843.2245-115.1771147818053Clb=-17.2m/s t=-59.4C h=1.7% p=-1.0hPa 404.800 MHz Type=RS41-NG ser=U2450580 Radiosonde
N7ZDX-2U24505802022-12-07 00:59:1643.2294-115.1891226319165Clb=-18.7m/s t=-59.8C h=1.5% p=-1.0hPa 404.800 MHz Type=RS41-NG ser=U2450580 Radiosonde
N7ZDX-2U24505802022-12-07 00:57:5443.2337-115.21115020390Clb=-22.6m/s t=-61.3C h=1.6% p=-1.0hPa 404.800 MHz Type=RS41-NG ser=U2450580 Radiosonde
N7ZDX-2U24505802022-12-07 00:56:3243.2374-115.2111356522016Clb=-31.9m/s t=-58.6C h=1.3% p=-1.0hPa 404.800 MHz Type=RS41-NG ser=U2450580 Radiosonde
N7ZDX-2U24505802022-12-07 00:55:0943.2422-115.2211385723852Clb=-32.1m/s t=-56.2C h=1.0% p=-1.0hPa 404.800 MHz Type=RS41-NG ser=U2450580 Radiosonde
N7ZDX-2U24505802022-12-07 00:53:4543.2454-115.228825925677Clb=-31.8m/s t=-56.2C h=1.0% p=-1.0hPa 404.800 MHz Type=RS41-NG ser=U2450580 Radiosonde
N7ZDX-2U24505802022-12-07 00:52:1643.2444-115.239976328022Clb=-38.2m/s t=-61.2C h=1.4% p=-1.0hPa 404.800 MHz Type=RS41-NG ser=U2450580 Radiosonde
N7ZDX-2U24505802022-12-07 00:50:4443.2485-115.25110710230442Clb=-45.1m/s t=-59.2C h=1.5% p=-1.0hPa 404.800 MHz Type=RS41-NG ser=U2450580 Radiosonde
N7ZDX-2U24505802022-12-07 00:49:1343.2521-115.27510810933053Clb=-25.2m/s t=-52.6C h=0.9% p=-1.0hPa 404.800 MHz Type=RS41-NG ser=U2450580 Radiosonde
N7ZDX-2U24505802022-12-07 00:47:4343.257-115.3039813932883Clb=5.3m/s t=-52.3C h=0.9% p=-1.0hPa 404.800 MHz Type=RS41-NG ser=U2450580 Radiosonde
N7ZDX-2U24505802022-12-07 00:46:0743.2616-115.3291009132523Clb=6.9m/s t=-52.6C h=0.9% p=-1.0hPa 404.800 MHz Type=RS41-NG ser=U2450580 Radiosonde
N7ZDX-2U24505802022-12-07 00:44:3543.2661-115.3559715932191Clb=5.8m/s t=-52.1C h=0.9% p=-1.0hPa 404.800 MHz Type=RS41-NG ser=U2450580 Radiosonde
N7ZDX-2U24505802022-12-07 00:43:2443.2668-115.38789131862Clb=6.8m/s t=-54.6C h=0.9% p=-1.0hPa 404.800 MHz Type=RS41-NG ser=U2450580 Radiosonde
N7ZDX-2U24505802022-12-07 00:42:2643.2676-115.41009431484Clb=5.5m/s t=-57.7C h=1.1% p=-1.0hPa 404.800 MHz Type=RS41-NG ser=U2450580 Radiosonde
N7ZDX-2U24505802022-12-07 00:41:5543.2717-115.4181117431093Clb=5.8m/s t=-58.1C h=1.2% p=-1.0hPa 404.800 MHz Type=RS41-NG ser=U2450580 Radiosonde
N7ZDX-2U24505802022-12-07 00:41:4143.2763-115.43710410730701Clb=5.9m/s t=-59.2C h=1.2% p=-1.0hPa 404.800 MHz Type=RS41-NG ser=U2450580 Radiosonde
N7ZDX-2U24505802022-12-07 00:41:3243.2806-115.45910410430313Clb=6.6m/s t=-60.4C h=1.3% p=-1.0hPa 404.800 MHz Type=RS41-NG ser=U2450580 Radiosonde
N7ZDX-2U24505802022-12-07 00:41:2943.2823-115.479867629925Clb=6.5m/s t=-61.7C h=1.4% p=-1.0hPa 404.800 MHz Type=RS41-NG ser=U2450580 Radiosonde
N7ZDX-2U24505802022-12-07 00:41:2543.2849-115.4911264429541Clb=5.7m/s t=-62.9C h=1.5% p=-1.0hPa 404.800 MHz Type=RS41-NG ser=U2450580 Radiosonde
N7ZDX-2U24505802022-12-07 00:41:2243.291-115.51347229152Clb=7.0m/s t=-61.2C h=1.4% p=-1.0hPa 404.800 MHz Type=RS41-NG ser=U2450580 Radiosonde
N7ZDX-2U24505802022-12-07 00:39:5643.2977-115.511328928744Clb=6.0m/s t=-59.9C h=1.2% p=-1.0hPa 404.800 MHz Type=RS41-NG ser=U2450580 Radiosonde
N7ZDX-2U24505802022-12-07 00:38:2543.3006-115.525855728339Clb=7.7m/s t=-62.2C h=1.5% p=-1.0hPa 404.800 MHz Type=RS41-NG ser=U2450580 Radiosonde
N7ZDX-2U24505802022-12-07 00:36:4243.3013-115.5371014827940Clb=7.2m/s t=-60.7C h=1.4% p=-1.0hPa 404.800 MHz Type=RS41-NG ser=U2450580 Radiosonde
N7ZDX-2U24505802022-12-07 00:35:0543.3019-115.549885927562Clb=6.9m/s t=-60.9C h=1.4% p=-1.0hPa 404.800 MHz Type=RS41-NG ser=U2450580 Radiosonde
N7ZDX-2U24505802022-12-07 00:33:2543.3005-115.558785427197Clb=6.3m/s t=-61.3C h=1.4% p=-1.0hPa 404.800 MHz Type=RS41-NG ser=U2450580 Radiosonde
N7ZDX-2U24505802022-12-07 00:31:3643.2963-115.568465926812Clb=6.7m/s t=-60.4C h=1.4% p=-1.0hPa 404.800 MHz Type=RS41-NG ser=U2450580 Radiosonde
N7ZDX-2U24505802022-12-07 00:29:5443.2905-115.577498126434Clb=6.8m/s t=-58.2C h=1.3% p=-1.0hPa 404.800 MHz Type=RS41-NG ser=U2450580 Radiosonde
N7ZDX-2U24505802022-12-07 00:28:1243.286-115.586755926063Clb=5.0m/s t=-56.4C h=1.1% p=-1.0hPa 404.800 MHz Type=RS41-NG ser=U2450580 Radiosonde
N7ZDX-2U24505802022-12-07 00:27:4043.2955-115.6281336524249Clb=6.7m/s t=-56.5C h=1.1% p=-1.0hPa 404.800 MHz Type=RS41-NG ser=U2450580 Radiosonde
N7ZDX-2U24505802022-12-07 00:27:0043.3012-115.6391205623906Clb=6.3m/s t=-57.0C h=1.1% p=-1.0hPa 404.800 MHz Type=RS41-NG ser=U2450580 Radiosonde
N7ZDX-2U24505802022-12-07 00:26:5543.3048-115.6491425923564Clb=5.4m/s t=-58.5C h=1.2% p=-1.0hPa 404.800 MHz Type=RS41-NG ser=U2450580 Radiosonde
N7ZDX-2U24505802022-12-07 00:25:1843.3099-115.6571265723215Clb=5.4m/s t=-58.1C h=1.3% p=-1.0hPa 404.800 MHz Type=RS41-NG ser=U2450580 Radiosonde
N7ZDX-2U24505802022-12-07 00:23:3243.3166-115.6671388922869Clb=5.7m/s t=-57.4C h=1.2% p=-1.0hPa 404.800 MHz Type=RS41-NG ser=U2450580 Radiosonde
N7ZDX-2U24505802022-12-07 00:21:4543.3226-115.681187822549Clb=4.2m/s t=-59.0C h=1.3% p=-1.0hPa 404.800 MHz Type=RS41-NG ser=U2450580 Radiosonde
N7ZDX-2U24505802022-12-07 00:20:0243.3276-115.6921436922208Clb=6.1m/s t=-60.3C h=1.4% p=-1.0hPa 404.800 MHz Type=RS41-NG ser=U2450580 Radiosonde
N7ZDX-2U24505802022-12-07 00:18:1743.3335-115.7031116321864Clb=6.3m/s t=-62.3C h=1.6% p=-1.0hPa 404.800 MHz Type=RS41-NG ser=U2450580 Radiosonde
N7ZDX-2U24505802022-12-07 00:16:2943.337-115.7121163121536Clb=4.2m/s t=-61.6C h=1.6% p=-1.0hPa 404.800 MHz Type=RS41-NG ser=U2450580 Radiosonde
N7ZDX-2U24505802022-12-07 00:14:4543.3397-115.7191075921210Clb=6.5m/s t=-61.7C h=1.6% p=-1.0hPa 404.800 MHz Type=RS41-NG ser=U2450580 Radiosonde
N7ZDX-2U24505802022-12-07 00:13:0243.3428-115.7311175020858Clb=4.4m/s t=-60.2C h=1.4% p=-1.0hPa 404.800 MHz Type=RS41-NG ser=U2450580 Radiosonde
N7ZDX-2U24505802022-12-07 00:11:5143.3474-115.7421126520509Clb=6.7m/s t=-60.3C h=1.5% p=-1.0hPa 404.800 MHz Type=RS41-NG ser=U2450580 Radiosonde
N7ZDX-2U24505802022-12-07 00:10:5543.3499-115.7521114420175Clb=6.0m/s t=-60.4C h=1.5% p=-1.0hPa 404.800 MHz Type=RS41-NG ser=U2450580 Radiosonde
N7ZDX-2U24505802022-12-07 00:10:2143.3529-115.7631075019862Clb=4.3m/s t=-60.0C h=1.5% p=-1.0hPa 404.800 MHz Type=RS41-NG ser=U2450580 Radiosonde
N7ZDX-2U24505802022-12-07 00:09:5443.3575-115.7741095919543Clb=5.5m/s t=-59.5C h=1.5% p=-1.0hPa 404.800 MHz Type=RS41-NG ser=U2450580 Radiosonde
N7ZDX-2U24505802022-12-07 00:09:4643.363-115.7871346919226Clb=6.3m/s t=-58.7C h=1.5% p=-1.0hPa 404.800 MHz Type=RS41-NG ser=U2450580 Radiosonde
N7ZDX-2U24505802022-12-07 00:09:4343.3693-115.7991257818927Clb=4.9m/s t=-58.7C h=1.6% p=-1.0hPa 404.800 MHz Type=RS41-NG ser=U2450580 Radiosonde
N7ZDX-2U24505802022-12-07 00:09:3143.3758-115.8131197418619Clb=3.8m/s t=-61.0C h=1.8% p=-1.0hPa 404.800 MHz Type=RS41-NG ser=U2450580 Radiosonde
N7ZDX-2U24505802022-12-07 00:07:5643.3794-115.8261147418311Clb=6.3m/s t=-60.4C h=1.7% p=-1.0hPa 404.800 MHz Type=RS41-NG ser=U2450580 Radiosonde
N7ZDX-2U24505802022-12-07 00:06:1343.3832-115.841086918016Clb=4.9m/s t=-60.0C h=1.7% p=-1.0hPa 404.800 MHz Type=RS41-NG ser=U2450580 Radiosonde
N7ZDX-2U24505802022-12-07 00:04:3143.3858-115.8541036917730Clb=3.2m/s t=-59.1C h=1.7% p=-1.0hPa 404.800 MHz Type=RS41-NG ser=U2450580 Radiosonde
N7ZDX-2U24505802022-12-07 00:02:5343.3874-115.866946317451Clb=5.6m/s t=-59.2C h=1.8% p=-1.0hPa 404.800 MHz Type=RS41-NG ser=U2450580 Radiosonde
N7ZDX-2U24505802022-12-07 00:01:0843.3892-115.881036517152Clb=5.6m/s t=-59.2C h=1.7% p=-1.0hPa 404.800 MHz Type=RS41-NG ser=U2450580 Radiosonde
N7ZDX-2U24505802022-12-06 23:59:4043.3912-115.8941055916857Clb=3.9m/s t=-58.6C h=1.9% p=-1.0hPa 404.800 MHz Type=RS41-NG ser=U2450580 Radiosonde
N7ZDX-2U24505802022-12-06 23:59:2443.4021-115.9291059116237Clb=5.1m/s t=-60.6C h=2.2% p=-1.0hPa 404.800 MHz Type=RS41-NG ser=U2450580 Radiosonde
N7ZDX-2U24505802022-12-06 23:58:5943.4042-115.945978715985Clb=4.6m/s t=-59.6C h=2.1% p=-1.0hPa 404.800 MHz Type=RS41-NG ser=U2450580 Radiosonde
N7ZDX-2U24505802022-12-06 23:57:5443.4051-115.963898315685Clb=5.9m/s t=-58.8C h=2.0% p=-1.0hPa 404.800 MHz Type=RS41-NG ser=U2450580 Radiosonde
N7ZDX-2U24505802022-12-06 23:56:0843.4052-115.982938315384Clb=5.5m/s t=-57.7C h=1.9% p=-1.0hPa 404.800 MHz Type=RS41-NG ser=U2450580 Radiosonde
N7ZDX-2U24505802022-12-06 23:54:3143.4062-115.999957215102Clb=4.6m/s t=-57.5C h=1.9% p=-1.0hPa 404.800 MHz Type=RS41-NG ser=U2450580 Radiosonde
N7ZDX-2U24505802022-12-06 23:52:5343.4065-116.013886914814Clb=5.1m/s t=-56.7C h=1.9% p=-1.0hPa 404.800 MHz Type=RS41-NG ser=U2450580 Radiosonde
N7ZDX-2U24505802022-12-06 23:51:3043.4066-116.027906314521Clb=5.0m/s t=-57.4C h=2.1% p=-1.0hPa 404.800 MHz Type=RS41-NG ser=U2450580 Radiosonde
N7ZDX-2U24505802022-12-06 23:50:5943.4075-116.041937014226Clb=5.9m/s t=-57.0C h=2.1% p=-1.0hPa 404.800 MHz Type=RS41-NG ser=U2450580 Radiosonde
N7ZDX-2U24505802022-12-06 23:50:5443.4075-116.056867213931Clb=3.5m/s t=-56.7C h=2.2% p=-1.0hPa 404.800 MHz Type=RS41-NG ser=U2450580 Radiosonde
N7ZDX-2U24505802022-12-06 23:50:4443.4081-116.07905913645Clb=4.7m/s t=-57.5C h=2.3% p=-1.0hPa 404.800 MHz Type=RS41-NG ser=U2450580 Radiosonde
N7ZDX-2U24505802022-12-06 23:49:1743.4086-116.083985713381Clb=4.1m/s t=-56.6C h=2.3% p=-1.0hPa 404.800 MHz Type=RS41-NG ser=U2450580 Radiosonde
N7ZDX-2U24505802022-12-06 23:47:5043.411-116.0961076113136Clb=4.5m/s t=-58.0C h=2.8% p=-1.0hPa 404.800 MHz Type=RS41-NG ser=U2450580 Radiosonde
N7ZDX-2U24505802022-12-06 23:46:0943.4129-116.1091086112871Clb=4.7m/s t=-57.8C h=2.9% p=-1.0hPa 404.800 MHz Type=RS41-NG ser=U2450580 Radiosonde
N7ZDX-2U24505802022-12-06 23:44:3543.4148-116.1191034812565Clb=3.5m/s t=-55.8C h=3.6% p=-1.0hPa 404.800 MHz Type=RS41-NG ser=U2450580 Radiosonde
N7ZDX-2U24505802022-12-06 23:43:2943.4195-116.1291266112280Clb=3.4m/s t=-273.0C h=-1.0% p=-1.0hPa 404.800 MHz Type=RS41-NG ser=U2450580 Radiosonde
N7ZDX-2U24505802022-12-06 23:36:1943.457-116.1432037210124Clb=4.2m/s t=-57.3C h=43.2% p=-1.0hPa 404.800 MHz Type=RS41-NG ser=U2450580 Radiosonde
N7ZDX-2U24505802022-12-06 23:35:1443.4598-116.1421966310043Clb=5.8m/s t=-56.7C h=42.8% p=-1.0hPa 404.800 MHz Type=RS41-NG ser=U2450580 Radiosonde
N7ZDX-2U24505802022-12-06 23:34:1343.4697-116.138197679771Clb=5.2m/s t=-55.1C h=44.4% p=-1.0hPa 404.800 MHz Type=RS41-NG ser=U2450580 Radiosonde
N7ZDX-2U24505802022-12-06 23:33:3743.4813-116.134181549423Clb=4.7m/s t=-53.2C h=39.4% p=-1.0hPa 404.800 MHz Type=RS41-NG ser=U2450580 Radiosonde
N7ZDX-2U24505802022-12-06 23:32:1343.4892-116.135177509189Clb=5.2m/s t=-52.2C h=36.2% p=-1.0hPa 404.800 MHz Type=RS41-NG ser=U2450580 Radiosonde
N7ZDX-2U24505802022-12-06 23:31:1043.4966-116.135173508948Clb=4.7m/s t=-50.6C h=36.4% p=-1.0hPa 404.800 MHz Type=RS41-NG ser=U2450580 Radiosonde
N7ZDX-2U24505802022-12-06 23:30:0943.5037-116.136167438690Clb=5.3m/s t=-48.5C h=34.1% p=-1.0hPa 404.800 MHz Type=RS41-NG ser=U2450580 Radiosonde
N7ZDX-2U24505802022-12-06 23:29:1843.5102-116.137169438445Clb=2.9m/s t=-46.7C h=29.6% p=-1.0hPa 404.800 MHz Type=RS41-NG ser=U2450580 Radiosonde
N7ZDX-2U24505802022-12-06 23:28:0643.516-116.139160448180Clb=3.9m/s t=-44.4C h=24.0% p=-1.0hPa 404.800 MHz Type=RS41-NG ser=U2450580 Radiosonde
N7ZDX-2U24505802022-12-06 23:27:0643.52-116.14153207890Clb=4.4m/s t=-41.9C h=19.7% p=-1.0hPa 404.800 MHz Type=RS41-NG ser=U2450580 Radiosonde
N7ZDX-2U24505802022-12-06 23:26:0543.5231-116.141162197636Clb=3.6m/s t=-39.7C h=19.7% p=-1.0hPa 404.800 MHz Type=RS41-NG ser=U2450580 Radiosonde
N7ZDX-2U24505802022-12-06 23:25:1143.5264-116.143164287378Clb=4.2m/s t=-37.5C h=-1.0% p=-1.0hPa 404.800 MHz Type=RS41-NG ser=U2450580 Radiosonde
N7ZDX-2U24505802022-12-06 23:24:0243.5301-116.145160337129Clb=3.2m/s t=-273.0C h=-1.0% p=-1.0hPa 404.800 MHz Type=RS41-NG ser=U2450580 Radiosonde